sensor_id;sensor_type;location;lat;lon;timestamp;P1;durP1;ratioP1;P2;durP2;ratioP2
6651;SDS011;3362;50.892;10.692;2023-08-06T00:02:12;3.28;;;1.60;;
6651;SDS011;3362;50.892;10.692;2023-08-06T00:04:38;3.08;;;1.92;;
6651;SDS011;3362;50.892;10.692;2023-08-06T00:07:04;5.25;;;1.98;;
6651;SDS011;3362;50.892;10.692;2023-08-06T00:09:31;2.60;;;2.08;;
6651;SDS011;3362;50.892;10.692;2023-08-06T00:11:57;2.35;;;2.00;;
6651;SDS011;3362;50.892;10.692;2023-08-06T00:14:23;2.88;;;2.30;;
6651;SDS011;3362;50.892;10.692;2023-08-06T00:16:49;3.05;;;1.85;;
6651;SDS011;3362;50.892;10.692;2023-08-06T00:19:17;2.22;;;2.03;;
6651;SDS011;3362;50.892;10.692;2023-08-06T00:21:43;6.35;;;1.95;;
6651;SDS011;3362;50.892;10.692;2023-08-06T00:24:10;2.35;;;1.70;;
6651;SDS011;3362;50.892;10.692;2023-08-06T00:26:36;3.03;;;1.63;;
6651;SDS011;3362;50.892;10.692;2023-08-06T00:29:02;3.75;;;1.70;;
6651;SDS011;3362;50.892;10.692;2023-08-06T00:31:28;2.72;;;1.48;;
6651;SDS011;3362;50.892;10.692;2023-08-06T00:33:55;2.67;;;1.80;;
6651;SDS011;3362;50.892;10.692;2023-08-06T00:36:22;3.53;;;2.30;;
6651;SDS011;3362;50.892;10.692;2023-08-06T00:38:49;2.33;;;1.45;;
6651;SDS011;3362;50.892;10.692;2023-08-06T00:41:15;2.13;;;1.92;;
6651;SDS011;3362;50.892;10.692;2023-08-06T00:43:41;2.28;;;1.60;;
6651;SDS011;3362;50.892;10.692;2023-08-06T00:46:08;2.03;;;1.58;;
6651;SDS011;3362;50.892;10.692;2023-08-06T00:48:34;2.60;;;1.92;;
6651;SDS011;3362;50.892;10.692;2023-08-06T00:51:01;2.83;;;1.83;;
6651;SDS011;3362;50.892;10.692;2023-08-06T00:53:29;1.90;;;1.77;;
6651;SDS011;3362;50.892;10.692;2023-08-06T00:55:55;2.05;;;1.85;;
6651;SDS011;3362;50.892;10.692;2023-08-06T00:58:22;1.58;;;1.45;;
6651;SDS011;3362;50.892;10.692;2023-08-06T01:00:48;2.85;;;1.77;;
6651;SDS011;3362;50.892;10.692;2023-08-06T01:03:14;1.48;;;1.35;;
6651;SDS011;3362;50.892;10.692;2023-08-06T01:05:41;4.15;;;1.73;;
6651;SDS011;3362;50.892;10.692;2023-08-06T01:08:11;2.08;;;1.60;;
6651;SDS011;3362;50.892;10.692;2023-08-06T01:10:48;2.65;;;1.65;;
6651;SDS011;3362;50.892;10.692;2023-08-06T01:13:18;3.20;;;1.80;;
6651;SDS011;3362;50.892;10.692;2023-08-06T01:15:46;1.70;;;1.35;;
6651;SDS011;3362;50.892;10.692;2023-08-06T01:18:13;2.35;;;1.95;;
6651;SDS011;3362;50.892;10.692;2023-08-06T01:20:41;5.20;;;1.85;;
6651;SDS011;3362;50.892;10.692;2023-08-06T01:23:07;4.03;;;1.60;;
6651;SDS011;3362;50.892;10.692;2023-08-06T01:25:34;7.85;;;1.77;;
6651;SDS011;3362;50.892;10.692;2023-08-06T01:28:03;2.35;;;1.70;;
6651;SDS011;3362;50.892;10.692;2023-08-06T01:30:31;3.50;;;1.98;;
6651;SDS011;3362;50.892;10.692;2023-08-06T01:33:01;1.98;;;1.65;;
6651;SDS011;3362;50.892;10.692;2023-08-06T01:35:29;2.28;;;1.60;;
6651;SDS011;3362;50.892;10.692;2023-08-06T01:37:57;3.70;;;2.00;;
6651;SDS011;3362;50.892;10.692;2023-08-06T01:40:24;3.35;;;2.10;;
6651;SDS011;3362;50.892;10.692;2023-08-06T01:42:52;2.47;;;1.67;;
6651;SDS011;3362;50.892;10.692;2023-08-06T01:45:18;4.22;;;1.88;;
6651;SDS011;3362;50.892;10.692;2023-08-06T01:47:44;8.80;;;1.90;;
6651;SDS011;3362;50.892;10.692;2023-08-06T01:50:11;4.93;;;1.77;;
6651;SDS011;3362;50.892;10.692;2023-08-06T01:52:37;2.78;;;1.58;;
6651;SDS011;3362;50.892;10.692;2023-08-06T01:55:05;1.80;;;1.55;;
6651;SDS011;3362;50.892;10.692;2023-08-06T01:57:31;1.83;;;1.55;;
6651;SDS011;3362;50.892;10.692;2023-08-06T01:59:58;3.13;;;1.58;;
6651;SDS011;3362;50.892;10.692;2023-08-06T02:02:24;5.95;;;1.40;;
6651;SDS011;3362;50.892;10.692;2023-08-06T02:04:50;2.40;;;1.63;;
6651;SDS011;3362;50.892;10.692;2023-08-06T02:07:16;4.10;;;1.60;;
6651;SDS011;3362;50.892;10.692;2023-08-06T02:09:43;2.90;;;1.63;;
6651;SDS011;3362;50.892;10.692;2023-08-06T02:12:10;1.63;;;1.33;;
6651;SDS011;3362;50.892;10.692;2023-08-06T02:14:37;4.63;;;1.45;;
6651;SDS011;3362;50.892;10.692;2023-08-06T02:17:03;4.50;;;1.50;;
6651;SDS011;3362;50.892;10.692;2023-08-06T02:19:29;2.28;;;1.27;;
6651;SDS011;3362;50.892;10.692;2023-08-06T02:21:56;4.18;;;1.55;;
6651;SDS011;3362;50.892;10.692;2023-08-06T02:24:22;3.10;;;1.52;;
6651;SDS011;3362;50.892;10.692;2023-08-06T02:26:48;2.10;;;1.63;;
6651;SDS011;3362;50.892;10.692;2023-08-06T02:29:17;3.30;;;1.40;;
6651;SDS011;3362;50.892;10.692;2023-08-06T02:31:43;7.20;;;1.60;;
6651;SDS011;3362;50.892;10.692;2023-08-06T02:34:10;3.78;;;1.65;;
6651;SDS011;3362;50.892;10.692;2023-08-06T02:36:36;2.92;;;1.60;;
6651;SDS011;3362;50.892;10.692;2023-08-06T02:39:02;2.08;;;1.20;;
6651;SDS011;3362;50.892;10.692;2023-08-06T02:41:28;4.00;;;1.70;;
6651;SDS011;3362;50.892;10.692;2023-08-06T02:43:55;7.15;;;2.72;;
6651;SDS011;3362;50.892;10.692;2023-08-06T02:46:22;3.67;;;2.20;;
6651;SDS011;3362;50.892;10.692;2023-08-06T02:48:49;6.03;;;2.03;;
6651;SDS011;3362;50.892;10.692;2023-08-06T02:51:15;4.97;;;1.90;;
6651;SDS011;3362;50.892;10.692;2023-08-06T02:53:41;4.22;;;2.10;;
6651;SDS011;3362;50.892;10.692;2023-08-06T02:56:08;3.63;;;2.00;;
6651;SDS011;3362;50.892;10.692;2023-08-06T02:58:34;2.88;;;1.73;;
6651;SDS011;3362;50.892;10.692;2023-08-06T03:01:00;2.85;;;1.83;;
6651;SDS011;3362;50.892;10.692;2023-08-06T03:03:29;7.88;;;1.73;;
6651;SDS011;3362;50.892;10.692;2023-08-06T03:05:55;5.00;;;1.90;;
6651;SDS011;3362;50.892;10.692;2023-08-06T03:08:22;10.60;;;1.83;;
6651;SDS011;3362;50.892;10.692;2023-08-06T03:10:49;2.83;;;1.52;;
6651;SDS011;3362;50.892;10.692;2023-08-06T03:13:15;4.55;;;1.50;;
6651;SDS011;3362;50.892;10.692;2023-08-06T03:15:42;5.50;;;1.60;;
6651;SDS011;3362;50.892;10.692;2023-08-06T03:18:08;1.88;;;1.65;;
6651;SDS011;3362;50.892;10.692;2023-08-06T03:20:36;1.38;;;1.27;;
6651;SDS011;3362;50.892;10.692;2023-08-06T03:23:02;2.38;;;1.80;;
6651;SDS011;3362;50.892;10.692;2023-08-06T03:25:29;2.67;;;1.33;;
6651;SDS011;3362;50.892;10.692;2023-08-06T03:27:55;3.28;;;1.08;;
6651;SDS011;3362;50.892;10.692;2023-08-06T03:30:21;3.22;;;1.48;;
6651;SDS011;3362;50.892;10.692;2023-08-06T03:32:48;2.20;;;1.95;;
6651;SDS011;3362;50.892;10.692;2023-08-06T03:35:14;6.85;;;1.55;;
6651;SDS011;3362;50.892;10.692;2023-08-06T03:37:42;5.72;;;2.00;;
6651;SDS011;3362;50.892;10.692;2023-08-06T03:40:08;2.47;;;1.23;;
6651;SDS011;3362;50.892;10.692;2023-08-06T03:42:35;4.03;;;1.40;;
6651;SDS011;3362;50.892;10.692;2023-08-06T03:45:01;2.15;;;1.50;;
6651;SDS011;3362;50.892;10.692;2023-08-06T03:47:28;1.90;;;1.58;;
6651;SDS011;3362;50.892;10.692;2023-08-06T03:49:54;4.22;;;1.27;;
6651;SDS011;3362;50.892;10.692;2023-08-06T03:52:20;5.50;;;1.75;;
6651;SDS011;3362;50.892;10.692;2023-08-06T03:54:48;3.53;;;1.52;;
6651;SDS011;3362;50.892;10.692;2023-08-06T03:57:14;1.67;;;1.58;;
6651;SDS011;3362;50.892;10.692;2023-08-06T03:59:40;2.15;;;1.73;;
6651;SDS011;3362;50.892;10.692;2023-08-06T04:02:07;2.30;;;1.35;;
6651;SDS011;3362;50.892;10.692;2023-08-06T04:04:33;5.45;;;1.50;;
6651;SDS011;3362;50.892;10.692;2023-08-06T04:06:59;1.65;;;1.48;;
6651;SDS011;3362;50.892;10.692;2023-08-06T04:09:27;3.55;;;1.50;;
6651;SDS011;3362;50.892;10.692;2023-08-06T04:11:55;3.55;;;1.60;;
6651;SDS011;3362;50.892;10.692;2023-08-06T04:14:23;2.38;;;1.55;;
6651;SDS011;3362;50.892;10.692;2023-08-06T04:16:49;5.55;;;1.80;;
6651;SDS011;3362;50.892;10.692;2023-08-06T04:19:16;2.00;;;1.60;;
6651;SDS011;3362;50.892;10.692;2023-08-06T04:21:42;4.97;;;1.40;;
6651;SDS011;3362;50.892;10.692;2023-08-06T04:24:08;4.85;;;1.30;;
6651;SDS011;3362;50.892;10.692;2023-08-06T04:26:35;1.52;;;1.42;;
6651;SDS011;3362;50.892;10.692;2023-08-06T04:29:02;1.70;;;1.30;;
6651;SDS011;3362;50.892;10.692;2023-08-06T04:31:29;2.35;;;1.30;;
6651;SDS011;3362;50.892;10.692;2023-08-06T04:33:55;1.48;;;1.17;;
6651;SDS011;3362;50.892;10.692;2023-08-06T04:36:21;2.10;;;1.27;;
6651;SDS011;3362;50.892;10.692;2023-08-06T04:38:48;1.70;;;1.25;;
6651;SDS011;3362;50.892;10.692;2023-08-06T04:41:14;2.60;;;1.48;;
6651;SDS011;3362;50.892;10.692;2023-08-06T04:43:40;1.20;;;1.10;;
6651;SDS011;3362;50.892;10.692;2023-08-06T04:46:08;1.67;;;1.40;;
6651;SDS011;3362;50.892;10.692;2023-08-06T04:48:34;1.95;;;1.20;;
6651;SDS011;3362;50.892;10.692;2023-08-06T04:51:00;2.00;;;1.60;;
6651;SDS011;3362;50.892;10.692;2023-08-06T04:53:27;1.48;;;1.38;;
6651;SDS011;3362;50.892;10.692;2023-08-06T04:55:53;2.10;;;1.40;;
6651;SDS011;3362;50.892;10.692;2023-08-06T04:58:19;2.58;;;1.65;;
6651;SDS011;3362;50.892;10.692;2023-08-06T05:00:45;3.67;;;1.70;;
6651;SDS011;3362;50.892;10.692;2023-08-06T05:03:13;1.80;;;1.50;;
6651;SDS011;3362;50.892;10.692;2023-08-06T05:05:39;2.78;;;1.88;;
6651;SDS011;3362;50.892;10.692;2023-08-06T05:08:06;2.25;;;1.33;;
6651;SDS011;3362;50.892;10.692;2023-08-06T05:10:32;6.22;;;1.77;;
6651;SDS011;3362;50.892;10.692;2023-08-06T05:12:58;2.38;;;1.58;;
6651;SDS011;3362;50.892;10.692;2023-08-06T05:15:25;2.28;;;1.65;;
6651;SDS011;3362;50.892;10.692;2023-08-06T05:17:52;2.15;;;1.90;;
6651;SDS011;3362;50.892;10.692;2023-08-06T05:20:20;2.25;;;2.00;;
6651;SDS011;3362;50.892;10.692;2023-08-06T05:22:46;1.92;;;1.73;;
6651;SDS011;3362;50.892;10.692;2023-08-06T05:25:13;1.58;;;1.33;;
6651;SDS011;3362;50.892;10.692;2023-08-06T05:27:39;4.10;;;1.80;;
6651;SDS011;3362;50.892;10.692;2023-08-06T05:30:06;4.97;;;1.38;;
6651;SDS011;3362;50.892;10.692;2023-08-06T05:32:32;4.80;;;1.73;;
6651;SDS011;3362;50.892;10.692;2023-08-06T05:34:59;1.75;;;1.35;;
6651;SDS011;3362;50.892;10.692;2023-08-06T05:37:26;2.10;;;1.90;;
6651;SDS011;3362;50.892;10.692;2023-08-06T05:39:52;2.53;;;1.60;;
6651;SDS011;3362;50.892;10.692;2023-08-06T05:42:19;5.57;;;2.53;;
6651;SDS011;3362;50.892;10.692;2023-08-06T05:44:45;2.25;;;1.85;;
6651;SDS011;3362;50.892;10.692;2023-08-06T05:47:11;5.07;;;2.22;;
6651;SDS011;3362;50.892;10.692;2023-08-06T05:49:38;2.35;;;1.83;;
6651;SDS011;3362;50.892;10.692;2023-08-06T05:52:04;2.10;;;1.77;;
6651;SDS011;3362;50.892;10.692;2023-08-06T05:54:34;6.35;;;1.98;;
6651;SDS011;3362;50.892;10.692;2023-08-06T05:57:01;3.03;;;2.20;;
6651;SDS011;3362;50.892;10.692;2023-08-06T05:59:27;2.15;;;1.77;;
6651;SDS011;3362;50.892;10.692;2023-08-06T06:01:53;4.38;;;2.08;;
6651;SDS011;3362;50.892;10.692;2023-08-06T06:04:20;2.67;;;1.88;;
6651;SDS011;3362;50.892;10.692;2023-08-06T06:06:46;2.03;;;1.67;;
6651;SDS011;3362;50.892;10.692;2023-08-06T06:09:12;1.80;;;1.70;;
6651;SDS011;3362;50.892;10.692;2023-08-06T06:11:40;5.00;;;2.08;;
6651;SDS011;3362;50.892;10.692;2023-08-06T06:14:06;7.50;;;2.92;;
6651;SDS011;3362;50.892;10.692;2023-08-06T06:16:33;3.70;;;2.10;;
6651;SDS011;3362;50.892;10.692;2023-08-06T06:18:59;3.28;;;1.95;;
6651;SDS011;3362;50.892;10.692;2023-08-06T06:21:26;2.30;;;2.10;;
6651;SDS011;3362;50.892;10.692;2023-08-06T06:23:52;1.90;;;1.63;;
6651;SDS011;3362;50.892;10.692;2023-08-06T06:26:18;3.30;;;2.50;;
6651;SDS011;3362;50.892;10.692;2023-08-06T06:28:46;4.90;;;2.50;;
6651;SDS011;3362;50.892;10.692;2023-08-06T06:31:12;2.67;;;2.20;;
6651;SDS011;3362;50.892;10.692;2023-08-06T06:33:38;3.88;;;2.40;;
6651;SDS011;3362;50.892;10.692;2023-08-06T06:36:05;2.08;;;1.65;;
6651;SDS011;3362;50.892;10.692;2023-08-06T06:38:32;7.85;;;2.30;;
6651;SDS011;3362;50.892;10.692;2023-08-06T06:40:58;2.78;;;2.15;;
6651;SDS011;3362;50.892;10.692;2023-08-06T06:43:25;2.53;;;1.80;;
6651;SDS011;3362;50.892;10.692;2023-08-06T06:45:56;2.83;;;2.10;;
6651;SDS011;3362;50.892;10.692;2023-08-06T06:48:24;5.40;;;2.33;;
6651;SDS011;3362;50.892;10.692;2023-08-06T06:50:50;2.35;;;2.03;;
6651;SDS011;3362;50.892;10.692;2023-08-06T06:53:16;3.28;;;1.80;;
6651;SDS011;3362;50.892;10.692;2023-08-06T06:55:42;3.22;;;2.30;;
6651;SDS011;3362;50.892;10.692;2023-08-06T06:58:09;2.97;;;1.90;;
6651;SDS011;3362;50.892;10.692;2023-08-06T07:00:35;3.97;;;2.28;;
6651;SDS011;3362;50.892;10.692;2023-08-06T07:03:03;3.53;;;2.08;;
6651;SDS011;3362;50.892;10.692;2023-08-06T07:05:29;2.20;;;2.00;;
6651;SDS011;3362;50.892;10.692;2023-08-06T07:07:56;2.97;;;2.10;;
6651;SDS011;3362;50.892;10.692;2023-08-06T07:10:22;3.95;;;2.15;;
6651;SDS011;3362;50.892;10.692;2023-08-06T07:12:48;2.60;;;1.83;;
6651;SDS011;3362;50.892;10.692;2023-08-06T07:15:14;1.98;;;1.75;;
6651;SDS011;3362;50.892;10.692;2023-08-06T07:17:42;2.47;;;2.05;;
6651;SDS011;3362;50.892;10.692;2023-08-06T07:20:10;2.53;;;1.83;;
6651;SDS011;3362;50.892;10.692;2023-08-06T07:22:36;2.30;;;1.40;;
6651;SDS011;3362;50.892;10.692;2023-08-06T07:25:03;1.98;;;1.77;;
6651;SDS011;3362;50.892;10.692;2023-08-06T07:27:29;1.88;;;1.55;;
6651;SDS011;3362;50.892;10.692;2023-08-06T07:29:55;1.55;;;1.40;;
6651;SDS011;3362;50.892;10.692;2023-08-06T07:32:23;2.13;;;1.60;;
6651;SDS011;3362;50.892;10.692;2023-08-06T07:34:48;3.08;;;1.88;;
6651;SDS011;3362;50.892;10.692;2023-08-06T07:37:16;4.65;;;1.67;;
6651;SDS011;3362;50.892;10.692;2023-08-06T07:39:42;2.28;;;1.40;;
6651;SDS011;3362;50.892;10.692;2023-08-06T07:42:10;2.88;;;1.80;;
6651;SDS011;3362;50.892;10.692;2023-08-06T07:44:36;2.15;;;1.70;;
6651;SDS011;3362;50.892;10.692;2023-08-06T07:47:03;5.38;;;1.52;;
6651;SDS011;3362;50.892;10.692;2023-08-06T07:49:29;5.43;;;1.60;;
6651;SDS011;3362;50.892;10.692;2023-08-06T07:51:55;3.42;;;1.67;;
6651;SDS011;3362;50.892;10.692;2023-08-06T07:54:23;2.85;;;2.10;;
6651;SDS011;3362;50.892;10.692;2023-08-06T07:56:49;3.78;;;2.80;;
6651;SDS011;3362;50.892;10.692;2023-08-06T07:59:16;3.20;;;1.52;;
6651;SDS011;3362;50.892;10.692;2023-08-06T08:01:42;3.13;;;1.63;;
6651;SDS011;3362;50.892;10.692;2023-08-06T08:04:08;3.40;;;1.30;;
6651;SDS011;3362;50.892;10.692;2023-08-06T08:06:34;2.75;;;1.80;;
6651;SDS011;3362;50.892;10.692;2023-08-06T08:09:01;3.00;;;1.67;;
6651;SDS011;3362;50.892;10.692;2023-08-06T08:11:29;6.05;;;1.88;;
6651;SDS011;3362;50.892;10.692;2023-08-06T08:13:55;1.98;;;1.70;;
6651;SDS011;3362;50.892;10.692;2023-08-06T08:16:21;1.58;;;1.48;;
6651;SDS011;3362;50.892;10.692;2023-08-06T08:18:49;2.33;;;1.48;;
6651;SDS011;3362;50.892;10.692;2023-08-06T08:21:16;1.70;;;1.52;;
6651;SDS011;3362;50.892;10.692;2023-08-06T08:23:42;1.90;;;1.63;;
6651;SDS011;3362;50.892;10.692;2023-08-06T08:26:09;2.70;;;1.52;;
6651;SDS011;3362;50.892;10.692;2023-08-06T08:28:36;1.88;;;1.38;;
6651;SDS011;3362;50.892;10.692;2023-08-06T08:31:03;3.90;;;1.73;;
6651;SDS011;3362;50.892;10.692;2023-08-06T08:33:29;2.10;;;1.30;;
6651;SDS011;3362;50.892;10.692;2023-08-06T08:35:55;3.10;;;1.42;;
6651;SDS011;3362;50.892;10.692;2023-08-06T08:38:22;1.48;;;1.08;;
6651;SDS011;3362;50.892;10.692;2023-08-06T08:40:49;2.47;;;1.60;;
6651;SDS011;3362;50.892;10.692;2023-08-06T08:43:17;4.22;;;1.42;;
6651;SDS011;3362;50.892;10.692;2023-08-06T08:45:49;1.85;;;1.40;;
6651;SDS011;3362;50.892;10.692;2023-08-06T08:48:15;1.23;;;1.13;;
6651;SDS011;3362;50.892;10.692;2023-08-06T08:50:42;1.23;;;1.13;;
6651;SDS011;3362;50.892;10.692;2023-08-06T08:53:09;1.80;;;1.35;;
6651;SDS011;3362;50.892;10.692;2023-08-06T08:55:37;3.10;;;1.27;;
6651;SDS011;3362;50.892;10.692;2023-08-06T08:58:04;2.13;;;1.33;;
6651;SDS011;3362;50.892;10.692;2023-08-06T09:00:30;2.40;;;1.30;;
6651;SDS011;3362;50.892;10.692;2023-08-06T09:02:58;3.03;;;1.45;;
6651;SDS011;3362;50.892;10.692;2023-08-06T09:05:25;1.42;;;1.15;;
6651;SDS011;3362;50.892;10.692;2023-08-06T09:07:53;4.18;;;1.13;;
6651;SDS011;3362;50.892;10.692;2023-08-06T09:10:20;2.45;;;1.10;;
6651;SDS011;3362;50.892;10.692;2023-08-06T09:12:48;1.70;;;1.17;;
6651;SDS011;3362;50.892;10.692;2023-08-06T09:15:16;1.50;;;1.00;;
6651;SDS011;3362;50.892;10.692;2023-08-06T09:17:43;1.77;;;1.05;;
6651;SDS011;3362;50.892;10.692;2023-08-06T09:20:11;0.70;;;0.70;;
6651;SDS011;3362;50.892;10.692;2023-08-06T09:22:38;1.35;;;0.75;;
6651;SDS011;3362;50.892;10.692;2023-08-06T09:25:06;1.85;;;1.10;;
6651;SDS011;3362;50.892;10.692;2023-08-06T09:27:34;1.20;;;1.10;;
6651;SDS011;3362;50.892;10.692;2023-08-06T09:30:01;1.42;;;0.80;;
6651;SDS011;3362;50.892;10.692;2023-08-06T09:32:29;1.17;;;0.90;;
6651;SDS011;3362;50.892;10.692;2023-08-06T09:35:13;1.98;;;1.13;;
6651;SDS011;3362;50.892;10.692;2023-08-06T09:37:41;1.30;;;0.98;;
6651;SDS011;3362;50.892;10.692;2023-08-06T09:40:21;0.98;;;0.70;;
6651;SDS011;3362;50.892;10.692;2023-08-06T09:42:50;4.55;;;1.02;;
6651;SDS011;3362;50.892;10.692;2023-08-06T09:45:16;2.47;;;0.77;;
6651;SDS011;3362;50.892;10.692;2023-08-06T09:47:43;0.82;;;0.60;;
6651;SDS011;3362;50.892;10.692;2023-08-06T09:50:15;0.57;;;0.47;;
6651;SDS011;3362;50.892;10.692;2023-08-06T09:52:43;1.10;;;0.70;;
6651;SDS011;3362;50.892;10.692;2023-08-06T09:55:10;1.15;;;0.80;;
6651;SDS011;3362;50.892;10.692;2023-08-06T09:57:36;2.22;;;1.00;;
6651;SDS011;3362;50.892;10.692;2023-08-06T10:00:03;1.77;;;0.80;;
6651;SDS011;3362;50.892;10.692;2023-08-06T10:02:33;0.90;;;0.73;;
6651;SDS011;3362;50.892;10.692;2023-08-06T10:05:00;0.55;;;0.55;;
6651;SDS011;3362;50.892;10.692;2023-08-06T10:07:28;0.75;;;0.60;;
6651;SDS011;3362;50.892;10.692;2023-08-06T10:09:55;1.60;;;0.95;;
6651;SDS011;3362;50.892;10.692;2023-08-06T10:12:22;0.65;;;0.55;;
6651;SDS011;3362;50.892;10.692;2023-08-06T10:14:50;4.38;;;0.90;;
6651;SDS011;3362;50.892;10.692;2023-08-06T10:17:17;1.08;;;0.85;;
6651;SDS011;3362;50.892;10.692;2023-08-06T10:19:43;3.33;;;0.73;;
6651;SDS011;3362;50.892;10.692;2023-08-06T10:22:10;2.80;;;0.80;;
6651;SDS011;3362;50.892;10.692;2023-08-06T10:24:51;0.75;;;0.60;;
6651;SDS011;3362;50.892;10.692;2023-08-06T10:27:21;3.25;;;0.63;;
6651;SDS011;3362;50.892;10.692;2023-08-06T10:29:47;3.03;;;0.70;;
6651;SDS011;3362;50.892;10.692;2023-08-06T10:32:14;0.65;;;0.40;;
6651;SDS011;3362;50.892;10.692;2023-08-06T10:37:22;1.17;;;0.70;;
6651;SDS011;3362;50.892;10.692;2023-08-06T10:39:50;1.38;;;0.50;;
6651;SDS011;3362;50.892;10.692;2023-08-06T10:42:20;1.05;;;0.80;;
6651;SDS011;3362;50.892;10.692;2023-08-06T10:47:33;0.50;;;0.50;;
6651;SDS011;3362;50.892;10.692;2023-08-06T10:50:04;2.40;;;0.70;;
6651;SDS011;3362;50.892;10.692;2023-08-06T10:52:30;1.23;;;0.57;;
6651;SDS011;3362;50.892;10.692;2023-08-06T10:54:58;2.10;;;0.60;;
6651;SDS011;3362;50.892;10.692;2023-08-06T10:57:24;0.88;;;0.73;;
6651;SDS011;3362;50.892;10.692;2023-08-06T10:59:50;1.77;;;0.70;;
6651;SDS011;3362;50.892;10.692;2023-08-06T11:02:17;1.35;;;0.90;;
6651;SDS011;3362;50.892;10.692;2023-08-06T11:04:43;0.75;;;0.55;;
6651;SDS011;3362;50.892;10.692;2023-08-06T11:07:09;0.95;;;0.55;;
6651;SDS011;3362;50.892;10.692;2023-08-06T11:09:36;1.35;;;0.90;;
6651;SDS011;3362;50.892;10.692;2023-08-06T11:12:07;2.40;;;1.15;;
6651;SDS011;3362;50.892;10.692;2023-08-06T11:14:35;2.03;;;0.73;;
6651;SDS011;3362;50.892;10.692;2023-08-06T11:17:01;1.98;;;0.90;;
6651;SDS011;3362;50.892;10.692;2023-08-06T11:19:26;2.08;;;1.27;;
6651;SDS011;3362;50.892;10.692;2023-08-06T11:21:54;1.08;;;0.50;;
6651;SDS011;3362;50.892;10.692;2023-08-06T11:24:20;1.42;;;0.90;;
6651;SDS011;3362;50.892;10.692;2023-08-06T11:26:46;1.23;;;0.50;;
6651;SDS011;3362;50.892;10.692;2023-08-06T11:29:16;0.73;;;0.73;;
6651;SDS011;3362;50.892;10.692;2023-08-06T11:31:42;0.90;;;0.50;;
6651;SDS011;3362;50.892;10.692;2023-08-06T11:34:08;5.93;;;0.90;;
6651;SDS011;3362;50.892;10.692;2023-08-06T11:36:36;3.05;;;0.75;;
6651;SDS011;3362;50.892;10.692;2023-08-06T11:39:02;1.80;;;0.75;;
6651;SDS011;3362;50.892;10.692;2023-08-06T11:41:30;1.13;;;0.65;;
6651;SDS011;3362;50.892;10.692;2023-08-06T11:43:56;3.53;;;0.75;;
6651;SDS011;3362;50.892;10.692;2023-08-06T11:46:24;0.57;;;0.30;;
6651;SDS011;3362;50.892;10.692;2023-08-06T11:48:51;0.32;;;0.30;;
6651;SDS011;3362;50.892;10.692;2023-08-06T11:51:17;0.68;;;0.68;;
6651;SDS011;3362;50.892;10.692;2023-08-06T11:53:46;0.30;;;0.30;;
6651;SDS011;3362;50.892;10.692;2023-08-06T11:56:12;0.20;;;0.20;;
6651;SDS011;3362;50.892;10.692;2023-08-06T11:58:40;0.40;;;0.30;;
6651;SDS011;3362;50.892;10.692;2023-08-06T12:01:06;1.05;;;0.40;;
6651;SDS011;3362;50.892;10.692;2023-08-06T12:03:38;0.40;;;0.40;;
6651;SDS011;3362;50.892;10.692;2023-08-06T12:06:04;0.70;;;0.60;;
6651;SDS011;3362;50.892;10.692;2023-08-06T12:08:32;0.70;;;0.50;;
6651;SDS011;3362;50.892;10.692;2023-08-06T12:10:58;0.68;;;0.30;;
6651;SDS011;3362;50.892;10.692;2023-08-06T12:13:25;0.32;;;0.30;;
6651;SDS011;3362;50.892;10.692;2023-08-06T12:15:51;0.25;;;0.20;;
6651;SDS011;3362;50.892;10.692;2023-08-06T12:18:18;0.47;;;0.28;;
6651;SDS011;3362;50.892;10.692;2023-08-06T12:20:46;0.40;;;0.20;;
6651;SDS011;3362;50.892;10.692;2023-08-06T12:23:12;0.75;;;0.20;;
6651;SDS011;3362;50.892;10.692;2023-08-06T12:25:40;0.20;;;0.20;;
6651;SDS011;3362;50.892;10.692;2023-08-06T12:28:06;1.15;;;0.57;;
6651;SDS011;3362;50.892;10.692;2023-08-06T12:30:33;0.57;;;0.40;;
6651;SDS011;3362;50.892;10.692;2023-08-06T12:32:59;0.43;;;0.40;;
6651;SDS011;3362;50.892;10.692;2023-08-06T12:35:26;0.17;;;0.17;;
6651;SDS011;3362;50.892;10.692;2023-08-06T12:37:53;0.45;;;0.20;;
6651;SDS011;3362;50.892;10.692;2023-08-06T12:40:22;0.43;;;0.20;;
6651;SDS011;3362;50.892;10.692;2023-08-06T12:42:49;3.20;;;0.47;;
6651;SDS011;3362;50.892;10.692;2023-08-06T12:45:16;0.20;;;0.20;;
6651;SDS011;3362;50.892;10.692;2023-08-06T12:47:45;1.50;;;0.50;;
6651;SDS011;3362;50.892;10.692;2023-08-06T12:50:12;0.28;;;0.28;;
6651;SDS011;3362;50.892;10.692;2023-08-06T12:52:38;0.20;;;0.20;;
6651;SDS011;3362;50.892;10.692;2023-08-06T12:55:06;0.63;;;0.30;;
6651;SDS011;3362;50.892;10.692;2023-08-06T12:57:33;0.10;;;0.10;;
6651;SDS011;3362;50.892;10.692;2023-08-06T12:59:59;0.73;;;0.30;;
6651;SDS011;3362;50.892;10.692;2023-08-06T13:02:26;0.88;;;0.43;;
6651;SDS011;3362;50.892;10.692;2023-08-06T13:04:54;0.22;;;0.22;;
6651;SDS011;3362;50.892;10.692;2023-08-06T13:07:21;0.40;;;0.30;;
6651;SDS011;3362;50.892;10.692;2023-08-06T13:09:47;1.75;;;0.10;;
6651;SDS011;3362;50.892;10.692;2023-08-06T13:12:15;0.20;;;0.20;;
6651;SDS011;3362;50.892;10.692;2023-08-06T13:14:43;1.65;;;0.20;;
6651;SDS011;3362;50.892;10.692;2023-08-06T13:17:10;0.20;;;0.20;;
6651;SDS011;3362;50.892;10.692;2023-08-06T13:19:36;0.25;;;0.20;;
6651;SDS011;3362;50.892;10.692;2023-08-06T13:22:03;0.10;;;0.10;;
6651;SDS011;3362;50.892;10.692;2023-08-06T13:24:31;0.13;;;0.13;;
6651;SDS011;3362;50.892;10.692;2023-08-06T13:26:58;0.20;;;0.20;;
6651;SDS011;3362;50.892;10.692;2023-08-06T13:29:26;0.10;;;0.10;;
6651;SDS011;3362;50.892;10.692;2023-08-06T13:31:53;0.40;;;0.13;;
6651;SDS011;3362;50.892;10.692;2023-08-06T13:34:19;0.10;;;0.10;;
6651;SDS011;3362;50.892;10.692;2023-08-06T13:36:45;0.20;;;0.20;;
6651;SDS011;3362;50.892;10.692;2023-08-06T13:39:12;0.35;;;0.28;;
6651;SDS011;3362;50.892;10.692;2023-08-06T13:41:41;0.38;;;0.20;;
6651;SDS011;3362;50.892;10.692;2023-08-06T13:44:07;0.15;;;0.15;;
6651;SDS011;3362;50.892;10.692;2023-08-06T13:46:35;0.20;;;0.20;;
6651;SDS011;3362;50.892;10.692;2023-08-06T13:49:02;0.20;;;0.20;;
6651;SDS011;3362;50.892;10.692;2023-08-06T13:51:28;0.10;;;0.10;;
6651;SDS011;3362;50.892;10.692;2023-08-06T13:53:54;0.20;;;0.20;;
6651;SDS011;3362;50.892;10.692;2023-08-06T13:56:22;0.10;;;0.10;;
6651;SDS011;3362;50.892;10.692;2023-08-06T13:58:48;0.22;;;0.10;;
6651;SDS011;3362;50.892;10.692;2023-08-06T14:01:16;0.57;;;0.35;;
6651;SDS011;3362;50.892;10.692;2023-08-06T14:03:44;0.10;;;0.10;;
6651;SDS011;3362;50.892;10.692;2023-08-06T14:06:10;0.28;;;0.10;;
6651;SDS011;3362;50.892;10.692;2023-08-06T14:08:36;0.10;;;0.10;;
6651;SDS011;3362;50.892;10.692;2023-08-06T14:11:03;0.10;;;0.10;;
6651;SDS011;3362;50.892;10.692;2023-08-06T14:13:31;0.45;;;0.20;;
6651;SDS011;3362;50.892;10.692;2023-08-06T14:15:57;0.22;;;0.22;;
6651;SDS011;3362;50.892;10.692;2023-08-06T14:18:23;0.10;;;0.10;;
6651;SDS011;3362;50.892;10.692;2023-08-06T14:20:51;0.10;;;0.10;;
6651;SDS011;3362;50.892;10.692;2023-08-06T14:23:18;0.20;;;0.20;;
6651;SDS011;3362;50.892;10.692;2023-08-06T14:25:44;0.00;;;0.00;;
6651;SDS011;3362;50.892;10.692;2023-08-06T14:28:10;0.10;;;0.10;;
6651;SDS011;3362;50.892;10.692;2023-08-06T14:30:37;0.05;;;0.00;;
6651;SDS011;3362;50.892;10.692;2023-08-06T14:33:03;0.20;;;0.10;;
6651;SDS011;3362;50.892;10.692;2023-08-06T14:35:29;0.13;;;0.10;;
6651;SDS011;3362;50.892;10.692;2023-08-06T14:37:57;0.05;;;0.05;;
6651;SDS011;3362;50.892;10.692;2023-08-06T14:40:23;0.00;;;0.00;;
6651;SDS011;3362;50.892;10.692;2023-08-06T14:42:53;0.28;;;0.15;;
6651;SDS011;3362;50.892;10.692;2023-08-06T14:45:19;0.00;;;0.00;;
6651;SDS011;3362;50.892;10.692;2023-08-06T14:47:45;0.00;;;0.00;;
6651;SDS011;3362;50.892;10.692;2023-08-06T14:50:12;1.45;;;0.17;;
6651;SDS011;3362;50.892;10.692;2023-08-06T14:52:38;0.20;;;0.20;;
6651;SDS011;3362;50.892;10.692;2023-08-06T14:55:06;0.20;;;0.20;;
6651;SDS011;3362;50.892;10.692;2023-08-06T14:57:32;0.30;;;0.30;;
6651;SDS011;3362;50.892;10.692;2023-08-06T14:59:59;3.33;;;2.20;;
6651;SDS011;3362;50.892;10.692;2023-08-06T15:02:25;3.28;;;2.58;;
6651;SDS011;3362;50.892;10.692;2023-08-06T15:04:51;5.43;;;1.77;;